Repto Horizonte, Puerto Rico
Current Conditions -  °F | °C
As of 3:53 AM on Friday 19 Dec 2014 (Local Time) from TJNR Reporting Station
Broken Clouds Broken Clouds  
Wind Chill: 79°   Ceiling: 4600
Heat Index: 81°   Visibility: 10mi
Dew Point: 66°   Wind: 9mph
Humidity: 64%   Direction: 70°ENE
Pressure: 29.95"   Gusts: 17mph
Location:  18.0547°N, 65.8738°W
Report Text: TJNR 190753Z AUTO 07008G15KT 10SM SCT037 BKN046 BKN055 26/19 A2995 RMK AO2 SLP142 T02610189 $
Loading
Personal Weather Stations






























Interactive Weather Map New forecast layout! Learn more

10-Day Weather Forecast

Advertisements
Track Severe Weather on mobile